Time;durP1;ratioP1;P1;durP2;ratioP2;P2;SDS_P1;SDS_P2;PMS_P1;PMS_P2;Temp;Humidity;BMP_temperature;BMP_pressure;BME280_temperature;BME280_humidity;BME280_pressure;Samples;Min_cycle;Max_cycle;Signal;HPM_P1;HPM_P2
2022/03/01 00:02:28;;;;;;;2.72;1.85;;;19.00;47.20;;;;;;7749072;23;20007;-68
2022/03/01 00:05:28;;;;;;;2.17;1.67;;;19.00;47.20;;;;;;7748186;23;20012;-68
2022/03/01 00:08:29;;;;;;;2.53;1.85;;;19.00;47.20;;;;;;7748469;23;20016;-68
2022/03/01 00:11:32;;;;;;;2.40;1.67;;;19.00;47.20;;;;;;7748477;23;20005;-68
2022/03/01 00:14:33;;;;;;;2.42;1.85;;;19.00;47.20;;;;;;7747960;23;20046;-68
2022/03/01 00:17:33;;;;;;;2.58;1.90;;;19.00;47.20;;;;;;7748155;23;20004;-66
2022/03/01 00:20:34;;;;;;;2.55;1.70;;;18.90;47.10;;;;;;7748060;23;20008;-68
2022/03/01 00:23:34;;;;;;;2.78;1.85;;;19.00;47.20;;;;;;7748585;23;20008;-68
2022/03/01 00:26:35;;;;;;;2.35;1.90;;;19.00;47.20;;;;;;7747522;23;20305;-68
2022/03/01 00:29:35;;;;;;;3.63;1.85;;;19.00;47.20;;;;;;7748496;23;20011;-68
2022/03/01 00:32:36;;;;;;;2.55;1.60;;;18.90;47.00;;;;;;7747559;23;20011;-68
2022/03/01 00:35:36;;;;;;;2.30;1.70;;;19.00;47.20;;;;;;7748245;23;20416;-68
2022/03/01 00:38:37;;;;;;;3.30;1.98;;;19.00;47.20;;;;;;7747960;23;20319;-68
2022/03/01 00:41:37;;;;;;;2.38;1.77;;;19.00;47.20;;;;;;7748679;23;20012;-68
2022/03/01 00:44:38;;;;;;;3.63;2.08;;;19.00;47.20;;;;;;7748013;23;20486;-68
2022/03/01 00:47:38;;;;;;;2.58;1.65;;;19.00;47.30;;;;;;7747812;23;20379;-68
2022/03/01 00:50:39;;;;;;;2.47;1.80;;;19.00;47.30;;;;;;7747980;23;20026;-68
2022/03/01 00:53:40;;;;;;;2.70;1.65;;;19.00;47.30;;;;;;7747989;23;20004;-68
2022/03/01 00:56:40;;;;;;;2.95;2.00;;;19.00;47.20;;;;;;7747352;23;20005;-68
2022/03/01 00:59:41;;;;;;;2.67;1.58;;;19.00;47.30;;;;;;7747244;23;20352;-68
2022/03/01 01:02:42;;;;;;;2.67;1.92;;;19.00;47.30;;;;;;7747113;23;20372;-68
2022/03/01 01:05:42;;;;;;;2.45;1.70;;;19.00;47.20;;;;;;7747358;23;20443;-68
2022/03/01 01:08:43;;;;;;;3.00;1.95;;;19.00;47.30;;;;;;7747708;23;20016;-68
2022/03/01 01:11:44;;;;;;;2.67;1.55;;;18.90;47.10;;;;;;7747774;23;20004;-68
2022/03/01 01:14:45;;;;;;;3.05;1.88;;;19.00;47.30;;;;;;7746958;23;20015;-68
2022/03/01 01:17:45;;;;;;;2.67;1.80;;;19.00;47.30;;;;;;7720953;23;20008;-68
2022/03/01 01:20:46;;;;;;;2.40;1.70;;;19.00;47.30;;;;;;7746987;23;20451;-68
2022/03/01 01:23:47;;;;;;;2.05;1.60;;;19.00;47.30;;;;;;7747859;23;20166;-68
2022/03/01 01:26:47;;;;;;;2.47;1.80;;;19.00;47.30;;;;;;7746927;23;20012;-68
2022/03/01 01:29:48;;;;;;;2.58;1.77;;;19.00;47.30;;;;;;7747533;23;20000;-68
2022/03/01 01:32:49;;;;;;;2.38;1.52;;;19.00;47.30;;;;;;7747402;23;20067;-68
2022/03/01 01:35:49;;;;;;;2.50;1.60;;;19.00;47.30;;;;;;7747111;23;20004;-68
2022/03/01 01:38:50;;;;;;;2.28;1.73;;;19.00;47.30;;;;;;7747252;23;20389;-68
2022/03/01 01:41:50;;;;;;;2.40;1.63;;;19.00;47.30;;;;;;7747394;23;20008;-69
2022/03/01 01:44:51;;;;;;;3.75;1.95;;;19.00;47.40;;;;;;7747444;23;20008;-68
2022/03/01 01:47:53;;;;;;;2.03;1.50;;;19.00;47.30;;;;;;7747185;23;20386;-68
2022/03/01 01:50:54;;;;;;;2.80;1.80;;;19.00;47.30;;;;;;7746400;23;20004;-68
2022/03/01 01:53:54;;;;;;;2.50;1.83;;;19.00;47.40;;;;;;7747438;23;20004;-68
2022/03/01 01:56:55;;;;;;;2.20;1.48;;;19.00;47.40;;;;;;7746606;23;20008;-68
2022/03/01 01:59:56;;;;;;;3.03;2.03;;;18.90;47.30;;;;;;7747131;23;20424;-68
2022/03/01 02:02:58;;;;;;;3.55;1.73;;;19.00;47.40;;;;;;7747129;23;20031;-68
2022/03/01 02:05:59;;;;;;;2.47;1.83;;;19.00;47.40;;;;;;7747229;23;20498;-68
2022/03/01 02:08:59;;;;;;;3.35;1.85;;;19.00;47.40;;;;;;7748141;23;20004;-68
2022/03/01 02:12:02;;;;;;;2.10;1.60;;;19.00;47.40;;;;;;7749632;23;19996;-68
2022/03/01 02:15:03;;;;;;;3.40;1.95;;;18.90;47.30;;;;;;7749346;23;20001;-68
2022/03/01 02:18:04;;;;;;;2.45;1.60;;;18.90;47.30;;;;;;7749860;23;20358;-68
2022/03/01 02:21:05;;;;;;;2.13;1.40;;;18.90;47.30;;;;;;7749460;23;20058;-68
2022/03/01 02:24:05;;;;;;;2.83;1.98;;;18.90;47.30;;;;;;7743846;23;20008;-68
2022/03/01 02:27:06;;;;;;;2.83;1.85;;;18.90;47.30;;;;;;7749688;23;20000;-66
2022/03/01 02:30:09;;;;;;;2.58;1.65;;;19.00;47.40;;;;;;7749909;23;20081;-68
2022/03/01 02:33:10;;;;;;;3.00;1.88;;;18.90;47.30;;;;;;7722957;23;20004;-68
2022/03/01 02:36:11;;;;;;;2.28;1.60;;;18.90;47.30;;;;;;7748972;23;20011;-68
2022/03/01 02:39:12;;;;;;;2.25;1.80;;;19.00;47.40;;;;;;7749282;23;20023;-68
2022/03/01 02:42:13;;;;;;;2.72;1.70;;;19.00;47.40;;;;;;7749006;23;20466;-68
2022/03/01 02:45:15;;;;;;;2.67;1.70;;;18.90;48.00;;;;;;7749577;23;20000;-68
2022/03/01 02:48:16;;;;;;;2.38;1.65;;;18.90;47.30;;;;;;7749125;23;20031;-68
2022/03/01 02:51:16;;;;;;;3.25;1.88;;;18.90;47.30;;;;;;7749734;23;20087;-68
2022/03/01 02:54:17;;;;;;;3.20;1.95;;;18.90;47.30;;;;;;7748836;23;20019;-68
2022/03/01 02:57:17;;;;;;;2.95;2.10;;;18.90;47.30;;;;;;7749341;23;20307;-68
2022/03/01 03:00:18;;;;;;;3.22;1.90;;;18.90;47.30;;;;;;7749110;23;20038;-68
2022/03/01 03:03:18;;;;;;;2.22;1.50;;;18.90;47.30;;;;;;7749096;23;20012;-68
2022/03/01 03:06:19;;;;;;;2.30;1.70;;;18.90;47.30;;;;;;7749110;23;20031;-68
2022/03/01 03:09:21;;;;;;;3.05;1.88;;;18.90;47.30;;;;;;7749321;23;20004;-68
2022/03/01 03:12:22;;;;;;;2.83;1.73;;;18.90;47.30;;;;;;7748462;23;19996;-68
2022/03/01 03:15:22;;;;;;;2.90;1.90;;;18.90;47.30;;;;;;7747926;23;20011;-68
2022/03/01 03:18:23;;;;;;;1.92;1.55;;;18.90;47.30;;;;;;7748667;23;20000;-68
2022/03/01 03:21:24;;;;;;;2.47;1.67;;;18.90;47.30;;;;;;7749024;23;20016;-68
2022/03/01 03:24:24;;;;;;;3.08;1.98;;;18.90;47.30;;;;;;7748227;23;20062;-68
2022/03/01 03:27:25;;;;;;;3.88;2.10;;;18.90;47.30;;;;;;7749051;23;20054;-68
2022/03/01 03:30:26;;;;;;;4.07;1.90;;;18.90;47.20;;;;;;7748740;23;20011;-68
2022/03/01 03:33:27;;;;;;;2.65;1.80;;;18.90;47.20;;;;;;7748485;23;20008;-68
2022/03/01 03:36:27;;;;;;;3.47;1.85;;;18.90;47.30;;;;;;7748754;23;20079;-68
2022/03/01 03:39:28;;;;;;;2.35;1.55;;;18.90;47.30;;;;;;7748964;23;20015;-68
2022/03/01 03:42:29;;;;;;;2.88;1.65;;;18.90;47.30;;;;;;7748098;23;20067;-68
2022/03/01 03:45:29;;;;;;;2.38;1.70;;;18.90;47.30;;;;;;7748970;23;20020;-68
2022/03/01 03:48:30;;;;;;;2.83;1.73;;;18.90;48.00;;;;;;7748391;23;20374;-68
2022/03/01 03:51:30;;;;;;;3.15;1.98;;;18.90;47.30;;;;;;7748882;23;20402;-68
2022/03/01 03:54:31;;;;;;;2.45;1.63;;;18.90;47.30;;;;;;7748777;23;20055;-68
2022/03/01 03:57:34;;;;;;;1.92;1.35;;;18.90;47.20;;;;;;7748664;23;20008;-68
2022/03/01 04:00:34;;;;;;;2.70;1.55;;;18.90;47.30;;;;;;7721369;23;20073;-68
2022/03/01 04:03:35;;;;;;;3.80;1.88;;;18.90;47.50;;;;;;7747995;23;20000;-68
2022/03/01 04:06:36;;;;;;;2.97;1.80;;;18.90;47.30;;;;;;7748740;23;20372;-68
2022/03/01 04:09:37;;;;;;;2.15;1.70;;;18.90;47.20;;;;;;7748412;23;20305;-68
2022/03/01 04:12:37;;;;;;;2.38;1.60;;;18.90;47.30;;;;;;7748046;23;20101;-68
2022/03/01 04:15:38;;;;;;;2.10;1.60;;;18.90;47.30;;;;;;7748160;23;20000;-67
2022/03/01 04:18:38;;;;;;;2.47;1.58;;;18.90;47.20;;;;;;7747966;23;20433;-68
2022/03/01 04:21:39;;;;;;;2.28;1.80;;;18.90;47.30;;;;;;7748468;23;20020;-68
2022/03/01 04:24:39;;;;;;;2.67;1.70;;;18.90;47.30;;;;;;7747826;23;20301;-68
2022/03/01 04:27:40;;;;;;;3.88;2.10;;;18.90;47.30;;;;;;7748586;23;20080;-68
2022/03/01 04:30:41;;;;;;;2.08;1.67;;;18.90;47.20;;;;;;7747666;23;20487;-68
2022/03/01 04:33:41;;;;;;;3.03;1.83;;;18.90;47.30;;;;;;7747595;23;20070;-68
2022/03/01 04:36:42;;;;;;;3.50;1.85;;;18.90;47.20;;;;;;7747753;23;20008;-68
2022/03/01 04:39:42;;;;;;;3.30;1.75;;;18.90;47.20;;;;;;7747620;23;20459;-68
2022/03/01 04:42:43;;;;;;;2.30;1.75;;;18.90;47.30;;;;;;7748244;23;20008;-68
2022/03/01 04:45:44;;;;;;;2.88;1.60;;;18.90;47.20;;;;;;7747634;23;20000;-68
2022/03/01 04:48:45;;;;;;;2.95;1.88;;;18.90;47.30;;;;;;7747799;23;20011;-68
2022/03/01 04:51:46;;;;;;;3.15;1.88;;;18.90;47.20;;;;;;7747532;23;20008;-68
2022/03/01 04:54:47;;;;;;;2.47;1.60;;;18.90;47.30;;;;;;7747641;23;20061;-68
2022/03/01 04:57:47;;;;;;;4.72;2.35;;;18.90;47.20;;;;;;7748064;23;20356;-68
2022/03/01 05:00:48;;;;;;;2.67;1.77;;;18.90;47.30;;;;;;7747814;23;20087;-68
2022/03/01 05:03:48;;;;;;;3.15;1.75;;;18.90;48.00;;;;;;7747228;23;20053;-68
2022/03/01 05:06:49;;;;;;;2.78;1.88;;;18.90;47.20;;;;;;7747180;23;20016;-68
2022/03/01 05:09:50;;;;;;;2.47;1.65;;;18.90;47.20;;;;;;7721246;23;20008;-68
2022/03/01 05:12:57;;;;;;;2.80;1.80;;;18.90;47.30;;;;;;7747771;23;20069;-68
2022/03/01 05:15:57;;;;;;;3.42;2.05;;;18.90;47.20;;;;;;7747503;23;20004;-68
2022/03/01 05:18:58;;;;;;;2.47;1.98;;;18.90;47.20;;;;;;7747778;23;20058;-68
2022/03/01 05:21:58;;;;;;;3.22;2.05;;;18.90;47.20;;;;;;7747184;23;20461;-68
2022/03/01 05:25:01;;;;;;;2.92;1.85;;;18.90;47.20;;;;;;7746560;23;20031;-69
2022/03/01 05:28:02;;;;;;;3.17;2.10;;;18.90;47.20;;;;;;7747059;23;20004;-68
2022/03/01 05:31:02;;;;;;;3.08;2.15;;;18.90;47.20;;;;;;7741068;23;20340;-68
2022/03/01 05:34:03;;;;;;;3.05;1.90;;;18.90;47.20;;;;;;7747124;23;20817;-68
2022/03/01 05:37:04;;;;;;;4.00;2.10;;;18.90;47.20;;;;;;7747197;23;20007;-68
2022/03/01 05:40:06;;;;;;;3.78;2.40;;;18.90;47.10;;;;;;7747726;23;20010;-68
2022/03/01 05:43:08;;;;;;;3.40;1.92;;;18.90;47.20;;;;;;7747062;23;20015;-68
2022/03/01 05:46:08;;;;;;;3.58;2.03;;;18.90;47.10;;;;;;7746823;23;20008;-68
2022/03/01 05:49:09;;;;;;;3.17;2.05;;;18.90;47.20;;;;;;7720792;23;20004;-68
2022/03/01 05:52:10;;;;;;;3.80;1.90;;;19.00;47.30;;;;;;7747294;23;20004;-68
2022/03/01 05:55:11;;;;;;;3.53;2.10;;;18.90;47.10;;;;;;7747158;23;20373;-67
2022/03/01 05:58:12;;;;;;;4.40;2.00;;;19.00;47.20;;;;;;7747112;23;20019;-68
2022/03/01 06:01:12;;;;;;;2.90;1.73;;;18.90;47.10;;;;;;7746364;23;20008;-68
2022/03/01 06:04:13;;;;;;;3.03;2.17;;;18.90;47.10;;;;;;7747023;23;20507;-68
2022/03/01 06:07:13;;;;;;;3.97;2.17;;;19.00;47.20;;;;;;7746850;23;20020;-68
2022/03/01 06:10:14;;;;;;;2.63;2.00;;;19.00;47.20;;;;;;7747109;23;20071;-68
2022/03/01 06:13:15;;;;;;;2.40;1.90;;;19.00;47.20;;;;;;7747638;23;20467;-68
2022/03/01 06:16:15;;;;;;;3.33;2.33;;;19.00;47.30;;;;;;7746817;23;20050;-68
2022/03/01 06:19:16;;;;;;;3.33;2.30;;;19.00;47.20;;;;;;7747099;23;20342;-68
2022/03/01 06:22:16;;;;;;;2.78;1.88;;;19.00;47.20;;;;;;7747511;23;20062;-68
2022/03/01 06:25:17;;;;;;;3.05;2.10;;;18.90;47.10;;;;;;7746778;23;20086;-68
2022/03/01 06:28:17;;;;;;;3.13;2.28;;;19.00;47.10;;;;;;7746623;23;20000;-68
2022/03/01 06:31:18;;;;;;;5.07;2.47;;;19.00;47.10;;;;;;7747511;23;19996;-68
2022/03/01 06:34:19;;;;;;;3.05;2.13;;;19.00;47.20;;;;;;7746654;23;20008;-68
2022/03/01 06:37:19;;;;;;;2.80;2.00;;;19.00;47.10;;;;;;7746967;23;20004;-68
2022/03/01 06:40:20;;;;;;;3.92;2.40;;;19.00;47.10;;;;;;7746837;23;20000;-68
2022/03/01 06:43:20;;;;;;;3.45;2.15;;;19.00;47.10;;;;;;7746862;23;20095;-68
2022/03/01 06:46:21;;;;;;;2.75;1.75;;;19.00;47.10;;;;;;7746194;23;20070;-68
2022/03/01 06:49:22;;;;;;;3.70;2.13;;;18.90;47.00;;;;;;7747049;23;20331;-68
2022/03/01 06:52:23;;;;;;;3.10;1.88;;;19.00;47.10;;;;;;7746555;23;20000;-68
2022/03/01 06:55:23;;;;;;;5.00;2.25;;;18.90;46.90;;;;;;7748342;23;20004;-68
2022/03/01 06:58:24;;;;;;;3.60;2.13;;;18.90;46.90;;;;;;7749199;23;20083;-68
2022/03/01 07:01:24;;;;;;;3.15;2.30;;;19.00;46.90;;;;;;7750927;23;20096;-68
2022/03/01 07:04:25;;;;;;;2.88;1.90;;;19.00;47.00;;;;;;7751244;23;20008;-67
2022/03/01 07:07:25;;;;;;;3.42;2.20;;;19.00;46.90;;;;;;7751394;23;20360;-68
2022/03/01 07:10:26;;;;;;;4.43;2.05;;;19.00;47.60;;;;;;7751761;23;19997;-68
2022/03/01 07:13:26;;;;;;;3.33;2.33;;;19.00;46.90;;;;;;7752106;23;20000;-68
2022/03/01 07:16:27;;;;;;;3.75;2.45;;;19.00;47.00;;;;;;7751206;23;20122;-66
2022/03/01 07:19:27;;;;;;;4.18;2.50;;;19.00;47.00;;;;;;7751531;23;20008;-67
2022/03/01 07:22:28;;;;;;;3.63;2.30;;;19.00;47.00;;;;;;7751276;23;20438;-68
2022/03/01 07:25:28;;;;;;;3.35;2.25;;;19.00;46.90;;;;;;7751552;23;20015;-66
2022/03/01 07:28:29;;;;;;;4.07;2.47;;;18.90;46.90;;;;;;7751390;23;20008;-68
2022/03/01 07:31:30;;;;;;;3.85;2.50;;;19.00;47.00;;;;;;7751459;23;20062;-68
2022/03/01 07:34:31;;;;;;;4.43;2.42;;;19.00;47.00;;;;;;7750885;23;20043;-69
2022/03/01 07:37:33;;;;;;;3.60;2.28;;;19.00;47.00;;;;;;7751478;23;20004;-68
2022/03/01 07:40:34;;;;;;;3.53;2.13;;;19.00;47.00;;;;;;7751220;23;20032;-68
2022/03/01 07:43:34;;;;;;;4.35;2.35;;;19.00;47.00;;;;;;7751242;23;20442;-68
2022/03/01 07:46:35;;;;;;;4.80;2.25;;;19.00;47.00;;;;;;7750499;23;20008;-67
2022/03/01 07:49:36;;;;;;;3.50;2.38;;;19.00;47.00;;;;;;7751111;23;20004;-68
2022/03/01 07:52:37;;;;;;;3.85;2.30;;;19.00;47.00;;;;;;7751761;23;20003;-68
2022/03/01 07:55:37;;;;;;;3.45;2.40;;;19.00;46.90;;;;;;7750691;23;20004;-68
2022/03/01 07:58:38;;;;;;;4.53;2.50;;;19.00;46.90;;;;;;7751235;23;19996;-68
2022/03/01 08:01:39;;;;;;;4.55;2.20;;;19.00;47.00;;;;;;7750634;23;20016;-68
2022/03/01 08:04:41;;;;;;;4.38;2.67;;;19.00;46.90;;;;;;7750675;23;20046;-68
2022/03/01 08:07:42;;;;;;;3.42;2.33;;;19.00;46.90;;;;;;7750296;23;20024;-68
2022/03/01 08:10:42;;;;;;;3.28;2.30;;;18.90;46.90;;;;;;7750895;23;20000;-68
2022/03/01 08:13:43;;;;;;;4.15;2.30;;;19.00;47.00;;;;;;7750426;23;20000;-68
2022/03/01 08:16:43;;;;;;;4.38;2.50;;;19.00;46.90;;;;;;7750505;23;20016;-67
2022/03/01 08:19:44;;;;;;;3.58;2.50;;;19.00;47.00;;;;;;7750472;23;20004;-68
2022/03/01 08:25:41;;;;;;;3.38;2.45;;;19.00;46.40;;;;;;6253830;28;20413;-68
2022/03/01 08:28:42;;;;;;;4.05;2.38;;;19.00;47.00;;;;;;6244783;28;20147;-68
2022/03/01 08:31:42;;;;;;;3.50;2.20;;;19.00;46.80;;;;;;6264866;28;20072;-68
2022/03/01 08:34:43;;;;;;;4.60;2.70;;;19.00;46.90;;;;;;6264675;28;20037;-68
2022/03/01 08:37:43;;;;;;;4.60;2.45;;;19.00;46.80;;;;;;6267360;28;20068;-69
2022/03/01 08:40:44;;;;;;;3.33;2.42;;;19.00;46.70;;;;;;6267059;28;20021;-69
2022/03/01 08:43:45;;;;;;;3.25;2.28;;;19.00;46.80;;;;;;6266750;28;20029;-69
2022/03/01 08:46:46;;;;;;;11.68;2.83;;;19.00;46.90;;;;;;6266930;28;20028;-69
2022/03/01 08:49:46;;;;;;;6.93;2.80;;;19.00;46.80;;;;;;6266081;28;20063;-69
2022/03/01 08:52:49;;;;;;;4.72;2.20;;;19.00;46.80;;;;;;6266992;28;20048;-68
2022/03/01 08:55:49;;;;;;;4.60;2.42;;;19.00;46.80;;;;;;6266838;28;20438;-68
2022/03/01 08:58:50;;;;;;;5.13;2.90;;;19.00;46.80;;;;;;6266581;28;20029;-68
2022/03/01 09:01:50;;;;;;;3.88;2.45;;;19.00;46.80;;;;;;6265230;28;20033;-69
2022/03/01 09:04:51;;;;;;;3.35;2.38;;;19.00;46.80;;;;;;6267412;28;20044;-68
2022/03/01 09:07:51;;;;;;;5.85;2.15;;;19.00;46.90;;;;;;6267199;28;20025;-69
2022/03/01 09:10:52;;;;;;;2.70;2.25;;;19.00;46.80;;;;;;6267418;28;20025;-69
2022/03/01 09:13:52;;;;;;;6.28;2.25;;;19.00;46.80;;;;;;6267101;28;20021;-69
2022/03/01 09:16:53;;;;;;;3.58;2.33;;;19.00;46.70;;;;;;6267300;28;20546;-69
2022/03/01 09:19:53;;;;;;;5.38;2.53;;;19.00;46.70;;;;;;6267087;28;20025;-69
2022/03/01 09:22:55;;;;;;;3.63;2.13;;;19.00;46.80;;;;;;6267020;28;20049;-69
2022/03/01 09:25:55;;;;;;;3.95;2.47;;;19.00;46.80;;;;;;6266742;28;20083;-69
2022/03/01 09:28:56;;;;;;;3.95;2.60;;;19.00;46.80;;;;;;6266988;28;20029;-69
2022/03/01 09:31:57;;;;;;;4.07;2.50;;;19.00;46.80;;;;;;6266812;28;20032;-69
2022/03/01 09:34:58;;;;;;;3.83;2.30;;;19.00;46.70;;;;;;6261808;28;20380;-69
2022/03/01 09:37:58;;;;;;;3.90;2.40;;;19.00;46.70;;;;;;6250150;28;20025;-69
2022/03/01 09:41:00;;;;;;;3.67;2.22;;;19.00;46.80;;;;;;6250149;28;20083;-69
2022/03/01 09:44:01;;;;;;;3.63;2.42;;;19.00;46.80;;;;;;6227591;28;20030;-68
2022/03/01 09:47:03;;;;;;;4.45;2.45;;;19.00;46.90;;;;;;6225574;28;20113;-69
2022/03/01 09:50:05;;;;;;;4.05;2.20;;;19.00;46.80;;;;;;6225322;28;20026;-69
2022/03/01 09:53:05;;;;;;;5.05;2.47;;;19.00;46.70;;;;;;6225402;28;20047;-69
2022/03/01 09:56:07;;;;;;;4.90;2.55;;;19.00;46.80;;;;;;6225141;28;20030;-68
2022/03/01 09:59:08;;;;;;;4.35;2.40;;;19.00;46.80;;;;;;6225375;28;20022;-69
2022/03/01 10:02:09;;;;;;;3.65;2.40;;;19.00;46.80;;;;;;6227511;28;20018;-69
2022/03/01 10:05:12;;;;;;;3.58;2.38;;;19.00;46.90;;;;;;6249542;28;20084;-69
2022/03/01 10:08:20;;;;;;;3.75;2.72;;;19.00;46.80;;;;;;6249535;28;20361;-69
2022/03/01 10:11:24;;;;;;;2.97;2.03;;;19.00;46.80;;;;;;6249369;28;20484;-69
2022/03/01 10:14:28;;;;;;;5.10;2.58;;;19.00;46.80;;;;;;6249452;28;20029;-68
2022/03/01 10:17:40;;;;;;;4.45;2.45;;;19.00;46.90;;;;;;6249075;28;20025;-69
2022/03/01 10:20:44;;;;;;;3.15;2.08;;;19.00;46.90;;;;;;6249243;28;20029;-69
2022/03/01 10:23:48;;;;;;;3.75;2.53;;;19.00;46.90;;;;;;6249195;28;20603;-69
2022/03/01 10:26:49;;;;;;;5.82;3.08;;;19.00;46.90;;;;;;6249283;28;20041;-68
2022/03/01 10:29:50;;;;;;;4.05;2.35;;;19.00;46.80;;;;;;6248443;28;20488;-68
2022/03/01 10:32:51;;;;;;;3.72;2.40;;;19.00;46.90;;;;;;6248328;28;20525;-69
2022/03/01 10:35:58;;;;;;;3.67;2.13;;;19.00;46.90;;;;;;6248828;28;20052;-69
2022/03/01 10:39:04;;;;;;;3.10;2.28;;;19.00;46.80;;;;;;6248693;28;20022;-69
2022/03/01 10:42:05;;;;;;;3.47;2.15;;;19.00;46.90;;;;;;6248700;28;20029;-69
2022/03/01 10:45:08;;;;;;;3.80;2.30;;;19.00;46.90;;;;;;6248419;28;20034;-69
2022/03/01 10:48:11;;;;;;;3.55;2.30;;;19.00;46.80;;;;;;6247841;28;20167;-69
2022/03/01 10:51:13;;;;;;;3.75;2.20;;;19.00;46.90;;;;;;6248235;28;20392;-69
2022/03/01 10:54:33;;;;;;;4.15;2.65;;;19.00;46.80;;;;;;6248511;28;20462;-68
2022/03/01 10:57:34;;;;;;;3.05;2.08;;;19.00;46.90;;;;;;6248454;28;20101;-68
2022/03/01 11:00:36;;;;;;;4.05;2.13;;;19.00;46.80;;;;;;6247856;28;20385;-68
2022/03/01 11:03:38;;;;;;;4.18;2.47;;;19.00;46.90;;;;;;6247938;28;20369;-69
2022/03/01 11:06:39;;;;;;;2.90;2.13;;;19.00;46.80;;;;;;6248062;28;20435;-69
2022/03/01 11:09:40;;;;;;;3.80;2.50;;;19.00;46.90;;;;;;6248155;28;20449;-68
2022/03/01 11:12:43;;;;;;;3.55;2.40;;;19.00;46.90;;;;;;6248103;28;20029;-69
2022/03/01 11:15:51;;;;;;;2.75;2.05;;;19.00;46.80;;;;;;6248089;28;20036;-69
2022/03/01 11:19:14;;;;;;;3.22;2.35;;;19.00;46.80;;;;;;6247775;28;20033;-69
2022/03/01 11:22:26;;;;;;;4.32;2.65;;;19.00;47.50;;;;;;6247633;28;20025;-68
2022/03/01 11:25:27;;;;;;;4.03;2.20;;;19.00;46.80;;;;;;6247463;28;20076;-70
2022/03/01 11:28:39;;;;;;;3.80;2.33;;;19.00;46.80;;;;;;6247522;28;20017;-69
2022/03/01 11:31:42;;;;;;;3.45;2.05;;;19.00;46.80;;;;;;6247337;28;20111;-68
2022/03/01 11:34:44;;;;;;;3.10;2.22;;;19.00;46.80;;;;;;6239135;28;20025;-68
2022/03/01 11:37:46;;;;;;;4.18;2.30;;;19.00;46.80;;;;;;6242443;28;20021;-68
2022/03/01 11:40:50;;;;;;;2.63;1.83;;;19.00;46.80;;;;;;6247503;28;20545;-69
2022/03/01 11:43:54;;;;;;;3.40;2.10;;;19.00;46.80;;;;;;6246872;28;20029;-68
2022/03/01 11:46:55;;;;;;;3.70;2.22;;;19.00;46.80;;;;;;6253771;28;20350;-68
2022/03/01 11:49:56;;;;;;;4.20;2.40;;;19.00;46.90;;;;;;6237418;28;20022;-68
2022/03/01 11:53:01;;;;;;;5.90;2.17;;;19.00;46.80;;;;;;6222340;28;20022;-69
2022/03/01 11:56:03;;;;;;;3.30;2.17;;;19.00;46.90;;;;;;6245224;28;20080;-68
2022/03/01 11:59:07;;;;;;;3.75;2.30;;;19.00;46.90;;;;;;6247638;28;20053;-69
2022/03/01 12:02:08;;;;;;;2.47;1.77;;;19.00;46.90;;;;;;6269817;28;20025;-68
2022/03/01 12:05:18;;;;;;;4.63;2.53;;;19.00;46.90;;;;;;6270283;28;20029;-68
2022/03/01 12:08:19;;;;;;;8.48;2.58;;;19.10;47.20;;;;;;6270478;28;20017;-68
2022/03/01 12:11:37;;;;;;;3.38;2.10;;;19.10;46.60;;;;;;6256739;28;20099;-68
2022/03/01 12:14:38;;;;;;;5.93;2.58;;;19.10;46.70;;;;;;6245548;28;20029;-68
2022/03/01 12:17:47;;;;;;;6.13;2.38;;;19.10;46.80;;;;;;6245090;28;20029;-67
2022/03/01 12:20:47;;;;;;;5.90;2.30;;;19.10;46.90;;;;;;6244563;28;20033;-68
2022/03/01 12:23:48;;;;;;;3.08;2.08;;;19.10;46.90;;;;;;6245203;28;20045;-68
2022/03/01 12:27:00;;;;;;;3.80;2.25;;;19.10;47.00;;;;;;6239257;28;20100;-65
2022/03/01 12:30:03;;;;;;;2.95;2.10;;;19.10;47.00;;;;;;6250628;28;20021;-67
2022/03/01 12:33:09;;;;;;;3.55;2.33;;;19.10;47.00;;;;;;6270027;28;20025;-67
2022/03/01 12:36:10;;;;;;;3.75;1.95;;;19.10;46.80;;;;;;6269723;28;20100;-68
2022/03/01 12:39:13;;;;;;;3.63;2.30;;;19.20;46.70;;;;;;6269403;28;20035;-67
2022/03/01 12:42:14;;;;;;;4.40;2.22;;;19.20;47.00;;;;;;6261841;28;20022;-68
2022/03/01 12:45:14;;;;;;;5.78;2.40;;;19.20;46.60;;;;;;6244894;28;20121;-67
2022/03/01 12:48:16;;;;;;;4.03;2.08;;;19.20;46.50;;;;;;6245333;28;20021;-67
2022/03/01 12:51:18;;;;;;;3.28;2.05;;;19.20;46.30;;;;;;6244542;28;20895;-68
2022/03/01 12:54:25;;;;;;;3.05;1.90;;;19.20;46.30;;;;;;6245157;28;20025;-67
2022/03/01 12:57:35;;;;;;;2.92;1.95;;;19.20;46.30;;;;;;6244864;28;20017;-68
2022/03/01 13:00:35;;;;;;;6.20;2.22;;;19.30;46.30;;;;;;6248224;28;20020;-67
2022/03/01 13:03:36;;;;;;;3.53;2.28;;;19.30;46.30;;;;;;6254925;28;20045;-67
2022/03/01 13:06:38;;;;;;;4.53;2.40;;;19.30;46.50;;;;;;6244255;28;20259;-67
2022/03/01 13:09:39;;;;;;;3.60;1.90;;;19.20;46.60;;;;;;6243775;28;20365;-67
2022/03/01 13:12:39;;;;;;;4.60;2.00;;;19.20;46.70;;;;;;6249218;28;20120;-68
2022/03/01 13:15:47;;;;;;;5.40;2.00;;;19.20;46.70;;;;;;6248945;28;20029;-67
2022/03/01 13:18:49;;;;;;;2.88;1.90;;;19.20;46.80;;;;;;6248718;28;20510;-67
2022/03/01 13:22:07;;;;;;;6.25;2.03;;;19.20;47.00;;;;;;6248243;28;20021;-66
2022/03/01 13:25:09;;;;;;;3.70;1.90;;;19.20;46.80;;;;;;6248064;28;20099;-67
2022/03/01 13:28:10;;;;;;;6.03;2.30;;;19.20;46.60;;;;;;6248856;28;20151;-67
2022/03/01 13:31:28;;;;;;;4.68;2.15;;;19.30;46.70;;;;;;6228789;28;20025;-67
2022/03/01 13:34:29;;;;;;;6.10;2.22;;;19.30;46.80;;;;;;6224341;28;20022;-67
2022/03/01 13:37:29;;;;;;;6.82;2.13;;;19.20;46.70;;;;;;6224323;28;20485;-67
2022/03/01 13:40:31;;;;;;;3.72;2.05;;;19.20;46.80;;;;;;6229276;28;20034;-69
2022/03/01 13:43:31;;;;;;;4.80;2.58;;;19.20;46.80;;;;;;6249960;28;20750;-67
2022/03/01 13:46:32;;;;;;;4.32;2.20;;;19.20;46.90;;;;;;6243146;28;20025;-67
2022/03/01 13:49:35;;;;;;;4.35;2.30;;;19.20;46.90;;;;;;6273225;28;20048;-68
2022/03/01 13:52:39;;;;;;;2.42;1.70;;;19.20;47.00;;;;;;6273335;28;20455;-67
2022/03/01 13:55:41;;;;;;;4.97;2.72;;;19.10;46.30;;;;;;6272941;28;20017;-69
2022/03/01 13:58:41;;;;;;;4.10;2.45;;;19.10;43.80;;;;;;6273761;28;20029;-67
2022/03/01 14:01:48;;;;;;;7.22;3.50;;;19.10;41.90;;;;;;6273041;28;20036;-67
2022/03/01 14:05:01;;;;;;;6.65;3.20;;;19.10;41.40;;;;;;6247692;28;20072;-67
2022/03/01 14:08:17;;;;;;;6.63;3.53;;;19.10;40.50;;;;;;6247073;28;20025;-68
2022/03/01 14:11:18;;;;;;;10.15;3.60;;;19.00;39.70;;;;;;6247576;28;20388;-69
2022/03/01 14:14:19;;;;;;;7.63;3.53;;;19.00;39.70;;;;;;6246635;28;20017;-68
2022/03/01 14:17:21;;;;;;;13.10;3.95;;;19.00;38.60;;;;;;6232414;28;20040;-65
2022/03/01 14:20:22;;;;;;;7.22;3.85;;;19.00;37.20;;;;;;6271474;28;20021;-70
2022/03/01 14:23:22;;;;;;;6.30;3.63;;;19.00;36.60;;;;;;6241142;28;20103;-68
2022/03/01 14:26:24;;;;;;;8.35;3.47;;;19.10;38.00;;;;;;6249485;28;20025;-70
2022/03/01 14:29:25;;;;;;;9.40;3.65;;;19.00;39.80;;;;;;6244370;28;20032;-67
2022/03/01 14:32:26;;;;;;;6.55;3.30;;;19.10;40.30;;;;;;6272241;28;20033;-68
2022/03/01 14:35:28;;;;;;;5.38;3.05;;;19.10;40.50;;;;;;6271719;28;20029;-67
2022/03/01 14:38:28;;;;;;;5.05;2.78;;;19.00;40.70;;;;;;6272216;28;20021;-68
2022/03/01 14:41:30;;;;;;;5.55;3.03;;;19.10;41.40;;;;;;6269752;28;20386;-68
2022/03/01 14:44:31;;;;;;;4.93;3.13;;;19.10;41.90;;;;;;6247126;28;20030;-68
2022/03/01 14:47:31;;;;;;;4.78;2.63;;;19.10;42.50;;;;;;6247084;28;20107;-67
2022/03/01 14:50:33;;;;;;;6.13;3.15;;;19.10;42.90;;;;;;6246972;28;20056;-68
2022/03/01 14:53:34;;;;;;;6.75;3.25;;;19.00;43.90;;;;;;6247268;28;20089;-68
2022/03/01 14:56:37;;;;;;;4.50;2.65;;;19.10;43.50;;;;;;6246949;28;20087;-68
2022/03/01 14:59:38;;;;;;;5.05;3.10;;;19.10;43.70;;;;;;6246911;28;20061;-69
2022/03/01 15:02:40;;;;;;;4.53;2.70;;;19.10;43.90;;;;;;6246739;28;20510;-68
2022/03/01 15:05:41;;;;;;;6.22;2.92;;;19.10;44.00;;;;;;6246196;28;20029;-68
2022/03/01 15:08:41;;;;;;;3.55;2.60;;;19.00;44.10;;;;;;6246783;28;20032;-67
2022/03/01 15:11:43;;;;;;;6.63;3.47;;;19.00;44.10;;;;;;6246445;28;20021;-68
2022/03/01 15:14:43;;;;;;;4.60;3.00;;;19.00;42.60;;;;;;6246602;28;20025;-67
2022/03/01 15:17:45;;;;;;;8.70;3.30;;;19.00;41.30;;;;;;6246539;28;20025;-68
2022/03/01 15:20:46;;;;;;;6.10;3.70;;;19.00;39.70;;;;;;6246352;28;20026;-68
2022/03/01 15:23:48;;;;;;;8.93;3.65;;;19.00;38.90;;;;;;6243223;28;20060;-65
2022/03/01 15:26:49;;;;;;;9.50;3.60;;;19.00;38.10;;;;;;6258770;28;20029;-68
2022/03/01 15:29:49;;;;;;;6.93;3.63;;;18.90;37.00;;;;;;6254561;28;20056;-67
2022/03/01 15:32:50;;;;;;;7.97;4.15;;;18.90;36.10;;;;;;6270368;28;20032;-68
2022/03/01 15:35:51;;;;;;;7.82;3.67;;;18.90;35.80;;;;;;6270381;28;20430;-68
2022/03/01 15:38:51;;;;;;;6.55;3.75;;;19.00;36.80;;;;;;6270951;28;20023;-67
2022/03/01 15:41:52;;;;;;;10.98;3.60;;;19.00;37.50;;;;;;6265403;28;20022;-67
2022/03/01 15:44:52;;;;;;;5.35;3.13;;;19.00;38.70;;;;;;6245329;28;20033;-68
2022/03/01 15:47:53;;;;;;;4.78;3.10;;;19.00;39.20;;;;;;6245973;28;20480;-68